Terminal Aerodrome Forecast
Issued by NWS Portland, OR

Home | Current Version | Previous Version | Text Only | Print | Product List | Glossary On
Versions: 1 2 3 4 5 6 7 8 9 10 11 12 13
000
FTUS46 KPQR 280525
TAFSLE
TAF
KSLE 280525Z 2806/2906 30007KT P6SM SKC
     FM280800 00000KT P6SM SKC
     FM281500 22004KT P6SM FEW011
     FM281900 28004KT P6SM SKC=

USA.gov is the U.S. government's official web portal to all federal, state and local government web resources and services.